Time;durP1;ratioP1;P1;durP2;ratioP2;P2;SDS_P1;SDS_P2;PMS_P1;PMS_P2;Temp;Humidity;BMP_temperature;BMP_pressure;BME280_temperature;BME280_humidity;BME280_pressure;Samples;Min_cycle;Max_cycle;Signal;HPM_P1;HPM_P2
2024/02/08 00:00:29;;;;;;;8.9;5.2;;;;;;;7.42;80.85645;927.3247;;;;
2024/02/08 00:02:54;;;;;;;5.7;3.3;;;;;;;7.52;80.78418;927.3607;;;;
2024/02/08 00:05:19;;;;;;;3.4;2.2;;;;;;;7.53;81.16992;927.4034;;;;
2024/02/08 00:07:44;;;;;;;3.8;2.5;;;;;;;7.55;79.4834;927.3322;;;;
2024/02/08 00:10:10;;;;;;;4.7;2.6;;;;;;;7.46;80.27344;927.3209;;;;
2024/02/08 00:12:35;;;;;;;5;3.4;;;;;;;7.46;81.04297;927.2385;;;;
2024/02/08 00:15:00;;;;;;;4.3;2.7;;;;;;;7.48;79.43652;927.3447;;;;
2024/02/08 00:17:25;;;;;;;4.7;2.8;;;;;;;7.61;81.04883;927.3945;;;;
2024/02/08 00:19:50;;;;;;;4.1;2.6;;;;;;;7.49;82.41016;927.3044;;;;
2024/02/08 00:22:15;;;;;;;3.9;2.4;;;;;;;7.45;83.07227;927.0928;;;;
2024/02/08 00:24:40;;;;;;;6.5;3.4;;;;;;;7.53;81.30566;927.2434;;;;
2024/02/08 00:27:05;;;;;;;15.6;9.1;;;;;;;7.51;81.71094;927.287;;;;
2024/02/08 00:29:30;;;;;;;9.1;5.5;;;;;;;7.55;82.26367;927.2182;;;;
2024/02/08 00:31:55;;;;;;;4.7;3;;;;;;;7.52;82.79004;927.1746;;;;
2024/02/08 00:34:20;;;;;;;3.2;2;;;;;;;7.56;83.69238;927.1002;;;;
2024/02/08 00:36:46;;;;;;;3.3;2.1;;;;;;;7.48;84.15234;927.1451;;;;
2024/02/08 00:39:10;;;;;;;2.7;1.5;;;;;;;7.45;85.44141;927.2592;;;;
2024/02/08 00:41:36;;;;;;;3;2.3;;;;;;;7.48;85.59375;927.252;;;;
2024/02/08 00:44:03;;;;;;;3.5;3.2;;;;;;;7.45;86.30273;927.3922;;;;
2024/02/08 00:46:26;;;;;;;2.9;2.5;;;;;;;7.4;87.64063;927.257;;;;
2024/02/08 00:48:54;;;;;;;11.6;7.4;;;;;;;7.41;86.90625;927.1758;;;;
2024/02/08 00:51:16;;;;;;;9.3;5.2;;;;;;;7.45;87.45898;927.1799;;;;
2024/02/08 00:53:42;;;;;;;16.3;9.5;;;;;;;7.4;87.56152;927.2436;;;;
2024/02/08 00:56:09;;;;;;;16;10.3;;;;;;;7.35;88.19629;927.264;;;;
2024/02/08 00:58:31;;;;;;;4.7;3.2;;;;;;;7.35;88.01563;927.2283;;;;
2024/02/08 01:00:56;;;;;;;30.6;16.7;;;;;;;7.29;88.27637;927.2472;;;;
2024/02/08 01:03:24;;;;;;;12.7;6.7;;;;;;;7.32;87.54492;927.3058;;;;
2024/02/08 01:05:52;;;;;;;9.5;6.3;;;;;;;7.29;87.7998;927.3747;;;;
2024/02/08 01:08:12;;;;;;;6.5;4.5;;;;;;;7.33;88.2041;927.4025;;;;
2024/02/08 01:10:37;;;;;;;6.2;4.1;;;;;;;7.32;88.66699;927.4167;;;;
2024/02/08 01:13:04;;;;;;;6.4;3.9;;;;;;;7.27;88.97461;927.4094;;;;
2024/02/08 01:15:28;;;;;;;6.9;4.2;;;;;;;7.25;88.9707;927.5201;;;;
2024/02/08 01:17:53;;;;;;;6.1;3.7;;;;;;;7.39;88.10547;927.5215;;;;
2024/02/08 01:20:21;;;;;;;4.1;3.2;;;;;;;7.33;88.52148;927.4872;;;;
2024/02/08 01:22:42;;;;;;;6;2.8;;;;;;;7.29;87.91309;927.5005;;;;
2024/02/08 01:25:07;;;;;;;6;3.4;;;;;;;7.3;89.15039;927.5647;;;;
2024/02/08 01:27:32;;;;;;;10;5.2;;;;;;;7.24;90.33984;927.4988;;;;
2024/02/08 01:29:59;;;;;;;9.5;5.8;;;;;;;7.22;90.92383;927.5359;;;;
2024/02/08 01:32:23;;;;;;;5.4;3.4;;;;;;;7.15;91.80566;927.4744;;;;
2024/02/08 01:34:49;;;;;;;15.1;9.1;;;;;;;7.19;91.17871;927.2488;;;;
2024/02/08 01:37:14;;;;;;;7.8;5.1;;;;;;;7.2;90.22852;927.279;;;;
2024/02/08 01:39:38;;;;;;;6.5;3.8;;;;;;;7.2;90.39844;927.2679;;;;
2024/02/08 01:42:03;;;;;;;7.5;4.9;;;;;;;7.14;90.59082;927.3635;;;;
2024/02/08 01:44:29;;;;;;;7.9;5.6;;;;;;;7.12;90.64258;927.3823;;;;
2024/02/08 01:46:54;;;;;;;10.5;6.2;;;;;;;7.03;91.16699;927.3803;;;;
2024/02/08 01:49:19;;;;;;;8.9;4.9;;;;;;;7.02;91.58398;927.3344;;;;
2024/02/08 01:51:44;;;;;;;4.2;2.9;;;;;;;7.1;91.64453;927.258;;;;
2024/02/08 01:54:10;;;;;;;5;3.2;;;;;;;7.11;92.05664;927.2169;;;;
2024/02/08 01:56:34;;;;;;;7.6;3.5;;;;;;;7.05;92.35742;927.1912;;;;
2024/02/08 01:59:00;;;;;;;4.2;3.1;;;;;;;7.08;91.90332;927.2366;;;;
2024/02/08 02:01:24;;;;;;;4.9;3.3;;;;;;;7.18;92.39844;927.2123;;;;
2024/02/08 02:03:50;;;;;;;5.5;2.8;;;;;;;7.24;92.36621;927.1931;;;;
2024/02/08 02:06:15;;;;;;;3;2.1;;;;;;;7.38;91.71777;927.12;;;;
2024/02/08 02:08:40;;;;;;;3;2;;;;;;;7.38;91.12598;927.1422;;;;
2024/02/08 02:11:06;;;;;;;9;5.7;;;;;;;7.38;91.08105;927.1627;;;;
2024/02/08 02:13:30;;;;;;;6.4;4.7;;;;;;;7.45;91.67676;927.1633;;;;
2024/02/08 02:15:55;;;;;;;3.7;2.3;;;;;;;7.53;92.06641;927.1864;;;;
2024/02/08 02:18:20;;;;;;;3;1.8;;;;;;;7.56;92.59375;927.1469;;;;
2024/02/08 02:20:45;;;;;;;3.1;1.9;;;;;;;7.49;91.34375;927.0176;;;;
2024/02/08 02:23:11;;;;;;;4;2.1;;;;;;;7.47;92.20215;927.0263;;;;
2024/02/08 02:25:38;;;;;;;3.5;1.8;;;;;;;7.47;92.88184;927.0485;;;;
2024/02/08 02:28:02;;;;;;;3.1;2.2;;;;;;;7.47;93.05176;926.9749;;;;
2024/02/08 02:30:26;;;;;;;4.8;2.1;;;;;;;7.39;93.80664;927.0179;;;;
2024/02/08 02:32:52;;;;;;;2.8;2.1;;;;;;;7.42;93.91309;926.9945;;;;
2024/02/08 02:35:17;;;;;;;3.7;2.1;;;;;;;7.36;93.82227;926.979;;;;
2024/02/08 02:37:41;;;;;;;2.9;2.1;;;;;;;7.36;94.15039;926.9647;;;;
2024/02/08 02:40:06;;;;;;;4;2.3;;;;;;;7.35;93.9541;926.9164;;;;
2024/02/08 02:42:32;;;;;;;4.3;2.4;;;;;;;7.4;93.30859;926.8959;;;;
2024/02/08 02:44:57;;;;;;;3;2.2;;;;;;;7.35;93.3877;926.842;;;;
2024/02/08 02:47:25;;;;;;;4.1;2.7;;;;;;;7.38;93.55176;926.77;;;;
2024/02/08 02:49:47;;;;;;;4.5;2.7;;;;;;;7.31;93.15234;926.7936;;;;
2024/02/08 02:52:12;;;;;;;5.2;2.9;;;;;;;7.27;93.76855;926.7642;;;;
2024/02/08 02:54:40;;;;;;;5.9;3.3;;;;;;;7.36;93.50293;926.8879;;;;
2024/02/08 02:57:03;;;;;;;6.2;3.5;;;;;;;7.3;93.16211;926.8054;;;;
2024/02/08 02:59:30;;;;;;;3.5;2.6;;;;;;;7.31;94.04785;926.6835;;;;
2024/02/08 03:01:55;;;;;;;3.9;3.1;;;;;;;7.33;93.98633;926.7857;;;;
2024/02/08 03:04:18;;;;;;;4.4;2.5;;;;;;;7.35;94.29395;926.8151;;;;
2024/02/08 03:06:45;;;;;;;4.4;2;;;;;;;7.32;94.62793;926.8855;;;;
2024/02/08 03:09:14;;;;;;;4.4;2.3;;;;;;;7.31;94.81836;926.8434;;;;
2024/02/08 03:11:34;;;;;;;3.1;2.3;;;;;;;7.31;94.75098;926.8593;;;;
2024/02/08 03:13:58;;;;;;;2.9;2.3;;;;;;;7.32;94.85449;926.8719;;;;
2024/02/08 03:16:26;;;;;;;2.8;2.3;;;;;;;7.36;94.55664;926.8142;;;;
2024/02/08 03:18:48;;;;;;;4.1;2.7;;;;;;;7.33;94.28027;926.8776;;;;
2024/02/08 03:21:17;;;;;;;3.5;2.3;;;;;;;7.39;94.18164;926.8484;;;;
2024/02/08 03:23:42;;;;;;;3.9;2.7;;;;;;;7.3;95.28125;926.9226;;;;
2024/02/08 03:26:07;;;;;;;4.8;2.3;;;;;;;7.26;95.375;926.8496;;;;
2024/02/08 03:28:29;;;;;;;5.9;3.5;;;;;;;7.26;95.62207;926.7704;;;;
2024/02/08 03:30:56;;;;;;;5;3.1;;;;;;;7.31;95.39648;926.8798;;;;
2024/02/08 03:33:19;;;;;;;4.1;3;;;;;;;7.31;94.91113;926.8981;;;;
2024/02/08 03:35:46;;;;;;;3.8;2.6;;;;;;;7.32;95.11523;926.8696;;;;
2024/02/08 03:38:10;;;;;;;3.7;2.5;;;;;;;7.3;95.32617;926.8798;;;;
2024/02/08 03:40:34;;;;;;;4.3;2.8;;;;;;;7.31;95.95215;926.8719;;;;
2024/02/08 03:43:00;;;;;;;5.1;2.7;;;;;;;7.33;96.35254;926.9401;;;;
2024/02/08 03:45:27;;;;;;;4.9;2.7;;;;;;;7.26;95.9082;926.9677;;;;
2024/02/08 03:47:50;;;;;;;3.5;2.6;;;;;;;7.29;96.12012;927.0009;;;;
2024/02/08 03:50:15;;;;;;;2.8;2.5;;;;;;;7.35;96.0957;926.9679;;;;
2024/02/08 03:52:40;;;;;;;2.5;2.3;;;;;;;7.39;95.85449;926.9855;;;;
2024/02/08 03:55:08;;;;;;;2.3;2.1;;;;;;;7.4;95.54102;926.907;;;;
2024/02/08 03:57:31;;;;;;;2.2;1.8;;;;;;;7.47;95.65918;926.9637;;;;
2024/02/08 04:00:01;;;;;;;5.7;2;;;;;;;7.46;95.44238;926.9479;;;;
2024/02/08 04:02:43;;;;;;;2.7;1.9;;;;;;;7.58;95.30957;927.0488;;;;
2024/02/08 04:05:15;;;;;;;2.5;2.1;;;;;;;7.53;95.12695;926.9916;;;;
2024/02/08 04:07:45;;;;;;;3.7;2.1;;;;;;;7.51;95.16895;927.0605;;;;
2024/02/08 04:10:10;;;;;;;2.7;1.9;;;;;;;7.56;95.17871;927.0566;;;;
2024/02/08 04:53:43;;;;;;;3.4;1.8;;;;;;;7.74;94.95801;926.9392;;;;
2024/02/08 04:55:54;;;;;;;1.7;1.2;;;;;;;7.77;94.37598;927.0106;;;;
2024/02/08 04:58:20;;;;;;;1.3;1.2;;;;;;;7.86;94.13477;926.9983;;;;
2024/02/08 05:00:45;;;;;;;1.2;1.1;;;;;;;7.86;93.6582;926.9944;;;;
2024/02/08 05:03:09;;;;;;;1.7;1.1;;;;;;;7.82;93.99023;926.9405;;;;
2024/02/08 05:05:38;;;;;;;1.1;1;;;;;;;7.79;94.28906;926.9227;;;;
2024/02/08 05:08:00;;;;;;;1.7;0.9;;;;;;;7.77;94.35547;926.9766;;;;
2024/02/08 05:10:28;;;;;;;1.8;1.3;;;;;;;7.83;95.54688;926.9468;;;;
2024/02/08 05:12:49;;;;;;;3;2.2;;;;;;;7.8;96.35742;926.8831;;;;
2024/02/08 05:15:15;;;;;;;4.3;3;;;;;;;7.75;96.3457;926.8656;;;;
2024/02/08 05:17:40;;;;;;;8.4;6.1;;;;;;;7.72;96.42871;926.8306;;;;
2024/02/08 05:20:06;;;;;;;8;5.1;;;;;;;7.73;96.6123;926.8061;;;;
2024/02/08 05:22:32;;;;;;;6.2;4.6;;;;;;;7.75;96.0625;926.719;;;;
2024/02/08 05:24:55;;;;;;;9.4;6.1;;;;;;;7.72;95.98633;926.764;;;;
2024/02/08 05:27:22;;;;;;;8.4;5.7;;;;;;;7.67;95.80566;926.7371;;;;
2024/02/08 05:29:46;;;;;;;7.2;5.2;;;;;;;7.64;96.5918;926.6214;;;;
2024/02/08 05:32:12;;;;;;;6.7;4.6;;;;;;;7.61;96.61914;926.7053;;;;
2024/02/08 05:34:36;;;;;;;4.9;3.9;;;;;;;7.62;96.64453;926.5969;;;;
2024/02/08 05:37:02;;;;;;;7.1;4.3;;;;;;;7.76;96.26855;926.5986;;;;
2024/02/08 05:39:28;;;;;;;6.6;4.2;;;;;;;7.72;96.02051;926.6152;;;;
2024/02/08 05:41:53;;;;;;;5;4.1;;;;;;;7.67;95.77148;926.5977;;;;
2024/02/08 05:44:16;;;;;;;6.5;4.3;;;;;;;7.73;96.19434;926.5494;;;;
2024/02/08 05:46:41;;;;;;;7.6;4.4;;;;;;;7.67;96.03223;926.6294;;;;
2024/02/08 05:49:11;;;;;;;4.9;3.6;;;;;;;7.7;96.3584;926.6516;;;;
2024/02/08 05:51:32;;;;;;;5.8;4;;;;;;;7.7;95.99316;926.6833;;;;
2024/02/08 05:53:57;;;;;;;4.4;3;;;;;;;7.73;95.54785;926.7126;;;;
2024/02/08 05:56:22;;;;;;;4.6;2.9;;;;;;;7.72;95.14648;926.5898;;;;
2024/02/08 05:58:47;;;;;;;4.4;2.9;;;;;;;7.73;95.04883;926.5313;;;;
2024/02/08 06:01:20;;;;;;;5.4;3.4;;;;;;;7.76;95.45117;926.6912;;;;
2024/02/08 06:03:37;;;;;;;6;4.2;;;;;;;7.69;96.64941;926.5961;;;;
2024/02/08 06:06:15;;;;;;;6.6;5.1;;;;;;;7.72;96.32617;926.627;;;;
2024/02/08 06:08:27;;;;;;;7.1;4.7;;;;;;;7.75;96.2666;926.6113;;;;
2024/02/08 06:10:52;;;;;;;7.9;4.6;;;;;;;7.77;96.14746;926.5851;;;;
2024/02/08 06:13:22;;;;;;;5.5;3.8;;;;;;;7.76;95.79004;926.5145;;;;
2024/02/08 06:15:47;;;;;;;5.4;3.8;;;;;;;7.83;95.81738;926.5094;;;;
2024/02/08 06:18:09;;;;;;;5.6;3.8;;;;;;;7.77;95.92969;926.5098;;;;
2024/02/08 06:20:40;;;;;;;4.9;3.5;;;;;;;7.75;95.44922;926.475;;;;
2024/02/08 06:23:01;;;;;;;5.3;3.9;;;;;;;7.68;95.70605;926.4511;;;;
2024/02/08 06:25:27;;;;;;;5.1;3.6;;;;;;;7.7;96.16504;926.5042;;;;
2024/02/08 06:27:50;;;;;;;4.4;3;;;;;;;7.72;95.9541;926.429;;;;
2024/02/08 06:30:18;;;;;;;4.2;3.1;;;;;;;7.68;95.79688;926.4409;;;;
2024/02/08 06:32:45;;;;;;;4.5;3.6;;;;;;;7.69;95.39941;926.4844;;;;
2024/02/08 06:35:09;;;;;;;4.4;3.4;;;;;;;7.71;95.41699;926.3783;;;;
2024/02/08 06:37:30;;;;;;;2.5;2;;;;;;;7.71;94.72656;926.4012;;;;
2024/02/08 06:39:56;;;;;;;2.5;2.3;;;;;;;7.77;94.52344;926.3362;;;;
2024/02/08 06:42:29;;;;;;;4.4;3.5;;;;;;;7.71;94.40723;926.3894;;;;
2024/02/08 06:44:53;;;;;;;4.3;3.9;;;;;;;7.68;94.24219;926.3577;;;;
2024/02/08 06:48:35;;;;;;;4.3;3.4;;;;;;;7.66;94.40918;926.4028;;;;
2024/02/08 07:37:59;;;;;;;1.3;1.2;;;;;;;8.84;89.8125;925.9414;;;;
2024/02/08 07:40:25;;;;;;;2.2;1.4;;;;;;;8.82;89.79688;925.9383;;;;
2024/02/08 07:42:51;;;;;;;1.8;1.4;;;;;;;8.81;90.1123;925.921;;;;
2024/02/08 07:45:12;;;;;;;1.2;1.1;;;;;;;8.75;91.63379;925.8653;;;;
2024/02/08 07:47:37;;;;;;;1.2;1.1;;;;;;;8.75;91.30371;925.9509;;;;
2024/02/08 07:50:08;;;;;;;1.1;1;;;;;;;8.77;91.00293;925.9366;;;;
2024/02/08 07:52:29;;;;;;;2.9;2.6;;;;;;;8.8;91.83887;926.0167;;;;
2024/02/08 07:54:56;;;;;;;2.1;1.9;;;;;;;8.92;92.11426;926.038;;;;
2024/02/08 07:57:24;;;;;;;2.3;1.8;;;;;;;9.31;91.02637;925.988;;;;
2024/02/08 07:59:42;;;;;;;2.1;1.4;;;;;;;9.6;89.66309;925.9125;;;;
2024/02/08 08:02:12;;;;;;;0.8;0.8;;;;;;;10.19;87.43457;925.9269;;;;
2024/02/08 08:04:51;;;;;;;1.7;1.3;;;;;;;10.76;86.73926;925.9946;;;;
2024/02/08 08:07:00;;;;;;;0.7;0.7;;;;;;;11.52;80.87109;925.8602;;;;
2024/02/08 08:09:22;;;;;;;0.8;0.8;;;;;;;11.66;80.22168;925.9669;;;;
2024/02/08 08:11:48;;;;;;;1.1;0.7;;;;;;;11.75;78.93457;925.9138;;;;
2024/02/08 08:14:55;;;;;;;1;0.9;;;;;;;11.82;77.27539;925.9395;;;;
2024/02/08 08:17:07;;;;;;;1;0.8;;;;;;;12.28;76.24609;925.915;;;;
2024/02/08 08:19:07;;;;;;;1.2;1.1;;;;;;;13.01;75.58203;925.9034;;;;
2024/02/08 08:21:55;;;;;;;4.6;3.2;;;;;;;13.7;71.94043;925.9444;;;;
2024/02/08 08:23:59;;;;;;;2;1.8;;;;;;;14.06;70.65137;925.9167;;;;
2024/02/08 08:26:37;;;;;;;2;1.7;;;;;;;14.68;69.31348;925.9615;;;;
2024/02/08 08:28:52;;;;;;;0.8;0.8;;;;;;;15.11;65.07715;925.9217;;;;
2024/02/08 08:34:00;;;;;;;1.7;0.8;;;;;;;16.03;62.23047;925.8362;;;;
2024/02/08 08:36:05;;;;;;;0.8;0.8;;;;;;;16.05;61.25;925.7784;;;;
2024/02/08 08:38:44;;;;;;;2.7;0.8;;;;;;;15.79;60.90137;925.757;;;;
2024/02/08 08:40:49;;;;;;;0.7;0.6;;;;;;;15.52;62.33203;925.7421;;;;
2024/02/08 08:43:19;;;;;;;0.6;0.5;;;;;;;15.2;61.02637;925.718;;;;
2024/02/08 08:45:40;;;;;;;0.6;0.5;;;;;;;14.83;62.2334;925.6678;;;;
2024/02/08 08:48:04;;;;;;;0.8;0.7;;;;;;;14.73;64.74316;925.715;;;;
2024/02/08 08:50:31;;;;;;;0.6;0.6;;;;;;;14.35;66.7832;925.7209;;;;
2024/02/08 08:52:57;;;;;;;0.9;0.6;;;;;;;14.55;66.57227;925.7958;;;;
2024/02/08 08:55:20;;;;;;;0.5;0.5;;;;;;;15.02;63.62109;925.7711;;;;
2024/02/08 08:57:47;;;;;;;1.6;1.4;;;;;;;15.47;63.70898;925.7389;;;;
2024/02/08 09:00:19;;;;;;;2.2;1.3;;;;;;;14.95;62.42188;925.7505;;;;
2024/02/08 09:02:40;;;;;;;3.3;2.1;;;;;;;14.67;63.90332;925.7737;;;;
2024/02/08 09:05:09;;;;;;;0.8;0.8;;;;;;;14.07;66.58008;925.7539;;;;
2024/02/08 09:07:30;;;;;;;5;3.5;;;;;;;13.75;68.48535;925.7497;;;;
2024/02/08 09:10:00;;;;;;;2.4;1.8;;;;;;;13.36;72.10156;925.7506;;;;
2024/02/08 09:12:15;;;;;;;1.3;1.2;;;;;;;13.44;70.5752;925.6565;;;;
2024/02/08 09:14:53;;;;;;;1;1;;;;;;;13.14;71.61816;925.6436;;;;
2024/02/08 09:17:05;;;;;;;0.8;0.8;;;;;;;12.92;72.39551;925.6542;;;;
2024/02/08 09:19:32;;;;;;;1;0.9;;;;;;;12.9;72.50781;925.6881;;;;
2024/02/08 09:21:58;;;;;;;1.1;0.8;;;;;;;12.69;74.5498;925.7207;;;;
2024/02/08 09:24:22;;;;;;;0.7;0.7;;;;;;;12.58;75.7002;925.6922;;;;
2024/02/08 09:26:56;;;;;;;0.7;0.6;;;;;;;12.71;76.35352;925.5183;;;;
2024/02/08 09:29:12;;;;;;;0.6;0.6;;;;;;;13.25;75.62305;925.6315;;;;
2024/02/08 09:31:38;;;;;;;1.6;0.6;;;;;;;14;73.02539;925.6522;;;;
2024/02/08 09:34:13;;;;;;;1.7;0.8;;;;;;;15.08;70.76074;925.4994;;;;
2024/02/08 09:36:29;;;;;;;1.5;1.3;;;;;;;16.05;65.06445;925.467;;;;
2024/02/08 09:38:52;;;;;;;2.1;1.7;;;;;;;16.56;63.56836;925.4666;;;;
2024/02/08 09:41:23;;;;;;;3.1;2;;;;;;;17.12;60.64746;925.4593;;;;
2024/02/08 09:43:44;;;;;;;3.4;2.4;;;;;;;17.39;60.60254;925.3783;;;;
2024/02/08 09:46:10;;;;;;;3.1;2.4;;;;;;;17.52;59.96973;925.3906;;;;
2024/02/08 09:48:37;;;;;;;5.3;2.7;;;;;;;17.71;59.20605;925.3703;;;;
2024/02/08 09:51:11;;;;;;;4.6;2.6;;;;;;;18.23;56.88477;925.4227;;;;
2024/02/08 09:53:30;;;;;;;2.3;1.5;;;;;;;18.48;53.09082;925.3462;;;;
2024/02/08 09:55:47;;;;;;;1.3;1.2;;;;;;;18.84;52.77344;925.3727;;;;
2024/02/08 09:58:13;;;;;;;1.5;1;;;;;;;19.15;52.2041;925.4009;;;;
2024/02/08 10:00:54;;;;;;;1;0.9;;;;;;;19.55;51.30762;925.2829;;;;
2024/02/08 10:03:05;;;;;;;1.2;0.8;;;;;;;19.65;48.80176;925.2734;;;;
2024/02/08 10:05:50;;;;;;;0.7;0.7;;;;;;;19.63;51.38672;925.1551;;;;
2024/02/08 10:08:05;;;;;;;1.2;0.9;;;;;;;20.2;50.2627;925.1616;;;;
2024/02/08 10:10:20;;;;;;;1.1;0.8;;;;;;;20.63;49.55176;925.1239;;;;
2024/02/08 10:12:53;;;;;;;0.9;0.7;;;;;;;20.84;47.68262;925.2274;;;;
2024/02/08 10:15:14;;;;;;;0.4;0.4;;;;;;;21.05;47.91504;925.0648;;;;
2024/02/08 10:17:51;;;;;;;0.7;0.7;;;;;;;20.84;47.50586;925.0425;;;;
2024/02/08 10:22:29;;;;;;;0.7;0.5;;;;;;;19.83;51.79492;925.1348;;;;
2024/02/08 10:27:14;;;;;;;0.3;0.3;;;;;;;20.39;47.56348;924.9894;;;;
2024/02/08 10:29:43;;;;;;;0.6;0.4;;;;;;;20.67;45.72363;924.9692;;;;
2024/02/08 10:32:04;;;;;;;0.9;0.4;;;;;;;20.49;47.99512;925.0295;;;;
2024/02/08 10:34:39;;;;;;;0.4;0.4;;;;;;;20.96;46.90039;924.8619;;;;
2024/02/08 10:36:55;;;;;;;0.3;0.3;;;;;;;21.25;46.22852;924.8041;;;;
2024/02/08 10:39:26;;;;;;;0.3;0.3;;;;;;;21.46;44.22559;924.7676;;;;
2024/02/08 10:41:57;;;;;;;0.3;0.3;;;;;;;20.92;43.03711;924.8141;;;;
2024/02/08 10:44:17;;;;;;;5.4;1.2;;;;;;;20.03;47.875;924.8167;;;;
2024/02/08 10:46:42;;;;;;;0.9;0.5;;;;;;;19.52;48.57813;924.8752;;;;
2024/02/08 10:49:00;;;;;;;2.9;0.6;;;;;;;18.92;50.72168;924.9023;;;;
2024/02/08 10:51:27;;;;;;;1.7;0.6;;;;;;;18.65;51.41309;924.9177;;;;
2024/02/08 10:54:04;;;;;;;6.4;1;;;;;;;18.61;51.64063;924.882;;;;
2024/02/08 10:56:17;;;;;;;3.6;0.7;;;;;;;18.49;53.67285;924.8402;;;;
2024/02/08 10:58:55;;;;;;;0.5;0.5;;;;;;;18.62;53.02637;924.8042;;;;
2024/02/08 11:01:13;;;;;;;1.6;0.6;;;;;;;18.43;50.63086;924.7903;;;;
2024/02/08 11:03:36;;;;;;;5.6;0.9;;;;;;;18.47;52.51953;924.7283;;;;
2024/02/08 11:06:04;;;;;;;4.3;1;;;;;;;18.44;52.94629;924.6842;;;;
2024/02/08 11:08:33;;;;;;;1.7;0.9;;;;;;;18.69;49.75391;924.5589;;;;
2024/02/08 11:10:46;;;;;;;2.6;0.9;;;;;;;18.8;52.00098;924.6321;;;;
2024/02/08 11:13:12;;;;;;;1.5;0.9;;;;;;;18.83;50.75879;924.5692;;;;
2024/02/08 11:15:39;;;;;;;2.9;1.1;;;;;;;18.74;51.3418;924.5438;;;;
2024/02/08 11:18:02;;;;;;;1;0.5;;;;;;;18.79;50.51074;924.3922;;;;
2024/02/08 11:20:33;;;;;;;0.5;0.5;;;;;;;19.34;48.77832;924.3725;;;;
2024/02/08 11:22:57;;;;;;;1.7;0.8;;;;;;;19.19;48.12109;924.2831;;;;
2024/02/08 11:25:23;;;;;;;0.6;0.6;;;;;;;19.14;47.63867;924.2659;;;;
2024/02/08 11:27:48;;;;;;;0.9;0.4;;;;;;;18.99;48.9375;924.2158;;;;
2024/02/08 11:30:12;;;;;;;0.6;0.4;;;;;;;18.59;50.33496;924.2838;;;;
2024/02/08 11:32:37;;;;;;;2.5;0.8;;;;;;;18.3;50.92969;924.2645;;;;
2024/02/08 11:35:02;;;;;;;3.5;0.6;;;;;;;18.24;51.22559;924.1436;;;;
2024/02/08 11:37:27;;;;;;;0.8;0.8;;;;;;;18.33;49.58496;924.157;;;;
2024/02/08 11:39:52;;;;;;;2.5;0.7;;;;;;;18.44;51.10938;924.1522;;;;
2024/02/08 11:42:18;;;;;;;2.5;1.4;;;;;;;18.73;49.12988;924.0401;;;;
2024/02/08 11:44:43;;;;;;;1.3;0.7;;;;;;;18.75;49.60938;923.9892;;;;
2024/02/08 11:47:19;;;;;;;0.3;0.2;;;;;;;18.63;49.23438;924.1174;;;;
2024/02/08 11:49:35;;;;;;;0.4;0.4;;;;;;;18.55;49.04004;923.9241;;;;
2024/02/08 11:52:02;;;;;;;0.5;0.4;;;;;;;18.29;48.79004;924.0408;;;;
2024/02/08 11:54:27;;;;;;;0.3;0.3;;;;;;;18.16;49.75293;923.9551;;;;
2024/02/08 11:56:49;;;;;;;0.4;0.3;;;;;;;18.18;50.66113;923.9517;;;;
2024/02/08 11:59:14;;;;;;;0.2;0.2;;;;;;;18.15;50.11035;923.9387;;;;
2024/02/08 12:01:43;;;;;;;0.6;0.5;;;;;;;17.99;50.96387;923.9492;;;;
2024/02/08 12:04:04;;;;;;;0.6;0.6;;;;;;;17.89;50.59277;923.8535;;;;
2024/02/08 12:06:30;;;;;;;2.7;1.3;;;;;;;17.7;51.99902;923.9108;;;;
2024/02/08 12:08:55;;;;;;;5.5;0.7;;;;;;;17.69;51.47559;923.9163;;;;
2024/02/08 12:11:22;;;;;;;0.9;0.5;;;;;;;17.54;51.88672;923.8131;;;;
2024/02/08 12:13:45;;;;;;;0.3;0.3;;;;;;;17.54;51.24805;923.8501;;;;
2024/02/08 12:16:11;;;;;;;1;0.5;;;;;;;17.59;50.69629;923.8448;;;;
2024/02/08 12:18:35;;;;;;;0.8;0.4;;;;;;;17.58;50.1748;923.7622;;;;
2024/02/08 12:21:01;;;;;;;0.8;0.4;;;;;;;17.56;50.9502;923.7438;;;;
2024/02/08 12:23:30;;;;;;;0.3;0.3;;;;;;;17.61;51.69629;923.7194;;;;
2024/02/08 12:25:52;;;;;;;1.1;0.6;;;;;;;17.52;52.16211;923.736;;;;
2024/02/08 12:28:15;;;;;;;0.5;0.4;;;;;;;17.45;51.64355;923.6781;;;;
2024/02/08 12:30:40;;;;;;;0.6;0.4;;;;;;;17.36;52.51465;923.6259;;;;
2024/02/08 12:33:07;;;;;;;1.2;0.5;;;;;;;17.32;52.69629;923.5857;;;;
2024/02/08 12:36:14;;;;;;;0.8;0.4;;;;;;;17.29;53.14453;923.5136;;;;
2024/02/08 12:38:39;;;;;;;0.8;0.7;;;;;;;17.36;53.87207;923.4933;;;;
2024/02/08 12:41:06;;;;;;;3.1;1.8;;;;;;;17.33;53.71777;923.4292;;;;
2024/02/08 12:43:29;;;;;;;2.1;1;;;;;;;17.36;54.13867;923.4339;;;;
2024/02/08 12:45:56;;;;;;;0.9;0.8;;;;;;;17.19;53.37598;923.3041;;;;
2024/02/08 12:48:20;;;;;;;0.6;0.5;;;;;;;17.24;53.53223;923.3541;;;;
2024/02/08 12:50:45;;;;;;;1.6;0.6;;;;;;;17.1;54.56934;923.3224;;;;
2024/02/08 12:53:13;;;;;;;1.9;0.7;;;;;;;17.13;54.42383;923.3148;;;;
2024/02/08 12:55:34;;;;;;;4.7;1;;;;;;;17.06;54.12402;923.2114;;;;
2024/02/08 12:58:01;;;;;;;4.4;1;;;;;;;16.98;54.94922;923.179;;;;
2024/02/08 13:00:25;;;;;;;1.2;0.7;;;;;;;16.93;53.13477;923.1091;;;;
2024/02/08 13:02:54;;;;;;;2.5;0.6;;;;;;;16.98;53.34961;923.084;;;;
2024/02/08 13:05:15;;;;;;;0.9;0.6;;;;;;;17.05;53.38184;923.0928;;;;
2024/02/08 13:07:40;;;;;;;0.6;0.5;;;;;;;17.09;53.07422;923.128;;;;
2024/02/08 13:10:14;;;;;;;1.3;0.6;;;;;;;17.12;53.44727;923.0797;;;;
2024/02/08 13:12:30;;;;;;;1;0.5;;;;;;;17.05;52.54785;923.0324;;;;
2024/02/08 13:14:56;;;;;;;1.5;0.6;;;;;;;16.97;53.48926;923.0544;;;;
2024/02/08 13:17:20;;;;;;;1;0.4;;;;;;;16.95;53.56641;922.9934;;;;
2024/02/08 13:19:46;;;;;;;0.4;0.4;;;;;;;16.95;53.05664;923.0086;;;;
2024/02/08 13:22:11;;;;;;;1;0.5;;;;;;;17.02;53.49316;922.9683;;;;
2024/02/08 13:24:36;;;;;;;3.1;0.5;;;;;;;16.99;53.28223;922.9121;;;;
2024/02/08 13:27:03;;;;;;;0.6;0.4;;;;;;;16.98;53.09473;922.949;;;;
2024/02/08 13:29:26;;;;;;;0.3;0.3;;;;;;;17.01;53.08691;922.9211;;;;
2024/02/08 13:31:51;;;;;;;0.4;0.4;;;;;;;17;52.88867;922.9208;;;;
2024/02/08 13:34:19;;;;;;;0.4;0.4;;;;;;;16.79;53.44434;922.9109;;;;
2024/02/08 13:36:43;;;;;;;0.5;0.4;;;;;;;16.95;53.70605;922.9099;;;;
2024/02/08 13:39:11;;;;;;;0.5;0.5;;;;;;;16.97;53.70703;922.8497;;;;
2024/02/08 13:41:33;;;;;;;0.5;0.5;;;;;;;16.93;53.94629;922.8897;;;;
2024/02/08 13:43:57;;;;;;;0.6;0.6;;;;;;;16.95;53.75195;922.8085;;;;
2024/02/08 13:46:22;;;;;;;0.5;0.5;;;;;;;16.94;53.47266;922.7389;;;;
2024/02/08 13:48:49;;;;;;;0.7;0.5;;;;;;;16.82;53.71387;922.8096;;;;
2024/02/08 13:51:16;;;;;;;0.5;0.5;;;;;;;16.71;54.96289;922.7234;;;;
2024/02/08 13:53:37;;;;;;;1.2;0.6;;;;;;;16.73;55.66016;922.7676;;;;
2024/02/08 13:56:05;;;;;;;2.2;0.6;;;;;;;16.72;55.86621;922.7522;;;;
2024/02/08 13:58:28;;;;;;;0.7;0.5;;;;;;;16.59;56.35938;922.7155;;;;
2024/02/08 14:00:54;;;;;;;2.1;0.8;;;;;;;16.57;56.28613;922.6289;;;;
2024/02/08 14:03:22;;;;;;;0.7;0.5;;;;;;;16.5;56.55469;922.5809;;;;
2024/02/08 14:05:48;;;;;;;0.4;0.4;;;;;;;16.45;56.56055;922.5024;;;;
2024/02/08 14:08:09;;;;;;;0.5;0.4;;;;;;;16.37;56.99023;922.5151;;;;
2024/02/08 14:10:33;;;;;;;1;0.4;;;;;;;16.09;56.93066;922.445;;;;
2024/02/08 14:12:59;;;;;;;1.5;0.3;;;;;;;16.09;57.16211;922.4625;;;;
2024/02/08 14:15:24;;;;;;;0.5;0.4;;;;;;;16.06;57.52832;922.5303;;;;
2024/02/08 14:17:54;;;;;;;0.4;0.3;;;;;;;15.94;57.18945;922.5472;;;;
2024/02/08 14:20:30;;;;;;;0.6;0.3;;;;;;;15.74;57.73926;922.4659;;;;
2024/02/08 14:22:39;;;;;;;0.3;0.3;;;;;;;15.55;58.38574;922.5579;;;;
2024/02/08 14:25:08;;;;;;;0.3;0.3;;;;;;;15.64;58.66211;922.6027;;;;
2024/02/08 14:27:29;;;;;;;0.2;0.2;;;;;;;15.53;59.06348;922.6067;;;;
2024/02/08 14:29:54;;;;;;;0.7;0.3;;;;;;;15.59;58.93359;922.5038;;;;
2024/02/08 14:32:21;;;;;;;0.3;0.3;;;;;;;15.66;58.76953;922.5833;;;;
2024/02/08 14:34:44;;;;;;;0.2;0.2;;;;;;;15.76;58.59668;922.6;;;;
2024/02/08 14:37:09;;;;;;;0.4;0.3;;;;;;;15.68;59.39648;922.6646;;;;
2024/02/08 14:39:34;;;;;;;0.2;0.2;;;;;;;15.62;59.58398;922.6356;;;;
2024/02/08 14:41:59;;;;;;;0.2;0.2;;;;;;;15.5;60.11035;922.7079;;;;
2024/02/08 14:44:31;;;;;;;0.4;0.4;;;;;;;15.43;59.93945;922.7899;;;;
2024/02/08 14:46:50;;;;;;;0.5;0.5;;;;;;;15.41;60.0293;922.7597;;;;
2024/02/08 14:49:28;;;;;;;0.3;0.3;;;;;;;15.49;60.12109;922.7195;;;;
2024/02/08 14:51:40;;;;;;;0.4;0.4;;;;;;;15.44;61.02539;922.6138;;;;
2024/02/08 14:54:05;;;;;;;1;0.5;;;;;;;15.37;60.74023;922.6197;;;;
2024/02/08 14:56:30;;;;;;;0.7;0.5;;;;;;;15.2;60.16113;922.5909;;;;
2024/02/08 14:59:09;;;;;;;1.6;0.3;;;;;;;15.25;60.48047;922.6969;;;;
2024/02/08 15:01:30;;;;;;;0.7;0.4;;;;;;;15.05;61.0293;922.6808;;;;
2024/02/08 15:03:49;;;;;;;0.3;0.3;;;;;;;15.21;60.45215;922.6249;;;;
2024/02/08 15:06:38;;;;;;;0.2;0.2;;;;;;;15.07;60.87012;922.5967;;;;
2024/02/08 15:08:54;;;;;;;0.4;0.4;;;;;;;15.07;61.37793;922.5887;;;;
2024/02/08 15:11:09;;;;;;;0.3;0.3;;;;;;;15.04;61.39746;922.5553;;;;
2024/02/08 15:13:26;;;;;;;0.6;0.4;;;;;;;14.9;61.74609;922.5956;;;;
2024/02/08 15:15:54;;;;;;;0.5;0.4;;;;;;;14.49;63.01367;922.6385;;;;
2024/02/08 15:18:30;;;;;;;0.8;0.5;;;;;;;14.68;62.92676;922.5342;;;;
2024/02/08 15:20:46;;;;;;;0.5;0.5;;;;;;;14.79;62.72266;922.4989;;;;
2024/02/08 15:23:31;;;;;;;0.9;0.5;;;;;;;14.78;62.73242;922.4849;;;;
2024/02/08 15:25:34;;;;;;;0.5;0.4;;;;;;;14.74;62.8877;922.4299;;;;
2024/02/08 15:27:59;;;;;;;0.4;0.4;;;;;;;14.54;63.1582;922.428;;;;
2024/02/08 15:30:36;;;;;;;3.9;0.7;;;;;;;14.52;63.60547;922.3982;;;;
2024/02/08 15:32:58;;;;;;;3.3;1.4;;;;;;;14.55;63.67871;922.3363;;;;
2024/02/08 15:35:22;;;;;;;2.6;1.2;;;;;;;14.5;63.52148;922.249;;;;
2024/02/08 15:37:43;;;;;;;1.5;1.3;;;;;;;14.48;63.77246;922.2329;;;;
2024/02/08 15:40:13;;;;;;;1.4;0.7;;;;;;;14.54;63.66504;922.1973;;;;
2024/02/08 15:42:39;;;;;;;0.7;0.6;;;;;;;14.53;63.91797;922.0952;;;;
2024/02/08 15:44:58;;;;;;;1.9;1.4;;;;;;;14.48;63.87598;922.1255;;;;
2024/02/08 15:47:18;;;;;;;6.4;3;;;;;;;14.51;64.03027;922.0499;;;;
2024/02/08 15:49:43;;;;;;;12.6;7.9;;;;;;;14.45;63.9873;922.0119;;;;
2024/02/08 15:52:14;;;;;;;18.4;10;;;;;;;14.47;63.875;922.0062;;;;
2024/02/08 15:54:38;;;;;;;14.2;7.5;;;;;;;14.45;64.12598;921.8917;;;;